Time;durP1;ratioP1;P1;durP2;ratioP2;P2;SDS_P1;SDS_P2;PMS_P1;PMS_P2;Temp;Humidity;BMP_temperature;BMP_pressure;BME280_temperature;BME280_humidity;BME280_pressure;Samples;Min_cycle;Max_cycle;Signal;HPM_P1;HPM_P2
2022/05/09 00:01:31;;;;;;;10.93;3.40;;;;;;;;;;5093748;28;20035;-87
2022/05/09 00:03:58;;;;;;;9.10;3.22;;;;;;;;;;5093759;28;20073;-87
2022/05/09 00:06:23;;;;;;;6.03;2.92;;;;;;;;;;5093726;28;20016;-87
2022/05/09 00:08:48;;;;;;;9.90;2.95;;;;;;;;;;5094848;28;20070;-87
2022/05/09 00:11:14;;;;;;;6.57;3.00;;;;;;;;;;5093449;28;20020;-87
2022/05/09 00:13:39;;;;;;;12.85;2.90;;;;;;;;;;5093489;28;20095;-87
2022/05/09 00:16:04;;;;;;;9.02;3.25;;;;;;;;;;5093277;28;20012;-87
2022/05/09 00:18:30;;;;;;;10.38;3.22;;;;;;;;;;5093323;28;20468;-87
2022/05/09 00:20:55;;;;;;;10.02;2.78;;;;;;;;;;5092921;28;20024;-87
2022/05/09 00:23:20;;;;;;;12.30;4.07;;;;;;;;;;5110325;28;20024;-86
2022/05/09 00:25:46;;;;;;;9.98;3.20;;;;;;;;;;5110212;28;20149;-87
2022/05/09 00:28:11;;;;;;;15.55;3.60;;;;;;;;;;5110181;28;20023;-87
2022/05/09 00:30:36;;;;;;;10.52;3.10;;;;;;;;;;5110214;28;20174;-87
2022/05/09 00:33:02;;;;;;;12.20;4.22;;;;;;;;;;5110088;28;20031;-87
2022/05/09 00:35:27;;;;;;;9.63;3.35;;;;;;;;;;5110084;28;20364;-87
2022/05/09 00:37:52;;;;;;;12.35;3.63;;;;;;;;;;5110041;28;20024;-87
2022/05/09 00:40:18;;;;;;;10.50;3.40;;;;;;;;;;5110092;28;20111;-87
2022/05/09 00:42:48;;;;;;;14.80;3.33;;;;;;;;;;5109878;28;20028;-88
2022/05/09 00:45:13;;;;;;;9.45;3.40;;;;;;;;;;5094254;28;20027;-87
2022/05/09 00:47:39;;;;;;;7.72;3.08;;;;;;;;;;5094315;28;20455;-87
2022/05/09 00:50:05;;;;;;;11.82;3.47;;;;;;;;;;5094219;28;20024;-87
2022/05/09 00:52:32;;;;;;;10.38;3.50;;;;;;;;;;5109784;28;20027;-87
2022/05/09 00:55:06;;;;;;;9.65;3.30;;;;;;;;;;5109848;28;20028;-87
2022/05/09 00:57:43;;;;;;;14.15;3.95;;;;;;;;;;5109697;28;20020;-87
2022/05/09 01:00:10;;;;;;;8.43;3.53;;;;;;;;;;5109846;28;20114;-87
2022/05/09 01:02:37;;;;;;;10.68;3.25;;;;;;;;;;5109786;28;20023;-88
2022/05/09 01:05:02;;;;;;;11.05;3.53;;;;;;;;;;5109773;28;20027;-88
2022/05/09 01:07:30;;;;;;;13.30;3.83;;;;;;;;;;5108756;28;20536;-87
2022/05/09 01:09:55;;;;;;;16.30;3.40;;;;;;;;;;5109560;28;20024;-88
2022/05/09 01:12:22;;;;;;;13.40;3.45;;;;;;;;;;5109583;28;20031;-87
2022/05/09 01:14:48;;;;;;;15.50;3.67;;;;;;;;;;5109590;28;20421;-87
2022/05/09 01:17:14;;;;;;;15.75;3.28;;;;;;;;;;5109418;28;20024;-87
2022/05/09 01:19:41;;;;;;;15.60;3.58;;;;;;;;;;5109745;28;20101;-87
2022/05/09 01:22:26;;;;;;;16.10;4.10;;;;;;;;;;5109619;28;20065;-87
2022/05/09 01:24:53;;;;;;;10.23;3.88;;;;;;;;;;5092205;28;20063;-87
2022/05/09 01:27:18;;;;;;;10.20;4.43;;;;;;;;;;5109500;28;20027;-87
2022/05/09 01:29:47;;;;;;;13.27;3.58;;;;;;;;;;5093734;28;20398;-87
2022/05/09 01:32:13;;;;;;;14.30;4.03;;;;;;;;;;5109642;28;20028;-87
2022/05/09 01:34:41;;;;;;;8.27;3.15;;;;;;;;;;5109445;28;20023;-87
2022/05/09 01:37:08;;;;;;;10.43;3.67;;;;;;;;;;5093444;28;20051;-88
2022/05/09 01:39:36;;;;;;;11.27;4.13;;;;;;;;;;5093609;28;20012;-88
2022/05/09 01:42:05;;;;;;;16.25;4.18;;;;;;;;;;5109497;28;20020;-87
2022/05/09 01:44:30;;;;;;;12.88;3.58;;;;;;;;;;5109283;28;20035;-87
2022/05/09 01:49:59;;;;;;;13.70;3.58;;;;;;;;;;5071291;28;20020;-87
2022/05/09 01:52:26;;;;;;;11.50;3.78;;;;;;;;;;5054516;28;20024;-87
2022/05/09 01:54:51;;;;;;;10.40;3.72;;;;;;;;;;5070239;28;20032;-87
2022/05/09 01:57:16;;;;;;;12.63;3.72;;;;;;;;;;5109018;28;20109;-87
2022/05/09 01:59:42;;;;;;;11.88;3.67;;;;;;;;;;5109039;28;20031;-87
2022/05/09 02:02:10;;;;;;;8.20;3.75;;;;;;;;;;5109034;28;20027;-87
2022/05/09 02:04:38;;;;;;;13.75;3.92;;;;;;;;;;5093387;28;20456;-87
2022/05/09 02:07:03;;;;;;;16.98;3.97;;;;;;;;;;5109192;28;20028;-87
2022/05/09 02:09:28;;;;;;;12.00;3.70;;;;;;;;;;5109312;28;20463;-87
2022/05/09 02:11:54;;;;;;;14.60;3.75;;;;;;;;;;5108963;28;20395;-87
2022/05/09 02:14:19;;;;;;;12.88;4.28;;;;;;;;;;5093291;28;20032;-87
2022/05/09 02:16:44;;;;;;;9.38;3.83;;;;;;;;;;5108979;28;20048;-87
2022/05/09 02:19:09;;;;;;;13.90;4.03;;;;;;;;;;5111192;28;20483;-87
2022/05/09 02:21:35;;;;;;;10.80;3.97;;;;;;;;;;5112724;28;20020;-87
2022/05/09 02:24:00;;;;;;;9.98;3.83;;;;;;;;;;5112699;28;20456;-87
2022/05/09 02:26:25;;;;;;;13.98;3.95;;;;;;;;;;5096949;28;20039;-87
2022/05/09 02:28:51;;;;;;;14.05;4.00;;;;;;;;;;5112660;28;20020;-87
2022/05/09 02:31:19;;;;;;;14.45;3.85;;;;;;;;;;5112491;28;20419;-87
2022/05/09 02:33:44;;;;;;;8.52;3.70;;;;;;;;;;5096767;28;20091;-87
2022/05/09 02:36:09;;;;;;;12.60;3.80;;;;;;;;;;5112484;28;20430;-87
2022/05/09 02:38:35;;;;;;;8.95;4.03;;;;;;;;;;5096636;28;20037;-87
2022/05/09 02:41:00;;;;;;;10.55;4.07;;;;;;;;;;5112402;28;20020;-87
2022/05/09 02:43:26;;;;;;;11.73;4.20;;;;;;;;;;5096430;28;20467;-87
2022/05/09 02:45:51;;;;;;;16.92;3.97;;;;;;;;;;5096478;28;20024;-87
2022/05/09 02:48:16;;;;;;;14.75;4.10;;;;;;;;;;5096386;28;20107;-87
2022/05/09 02:50:41;;;;;;;13.38;4.30;;;;;;;;;;5096321;28;20028;-87
2022/05/09 02:53:10;;;;;;;11.45;4.63;;;;;;;;;;5112106;28;20030;-87
2022/05/09 02:55:36;;;;;;;13.43;4.30;;;;;;;;;;5112001;28;20031;-87
2022/05/09 02:58:01;;;;;;;16.08;4.07;;;;;;;;;;5096408;28;20471;-87
2022/05/09 03:00:29;;;;;;;16.67;4.38;;;;;;;;;;5096178;28;20042;-87
2022/05/09 03:05:39;;;;;;;16.80;4.25;;;;;;;;;;5096606;28;20031;-87
2022/05/09 03:08:05;;;;;;;14.60;3.67;;;;;;;;;;5111773;28;20020;-87
2022/05/09 03:10:31;;;;;;;11.00;3.72;;;;;;;;;;5111875;28;20020;-87
2022/05/09 03:13:00;;;;;;;15.27;4.00;;;;;;;;;;5111651;28;20424;-87
2022/05/09 03:15:26;;;;;;;10.20;3.67;;;;;;;;;;5111707;28;20016;-87
2022/05/09 03:17:51;;;;;;;12.05;3.90;;;;;;;;;;5111650;28;20463;-87
2022/05/09 03:20:17;;;;;;;11.95;4.20;;;;;;;;;;5111636;28;20066;-87
2022/05/09 03:22:42;;;;;;;11.65;4.05;;;;;;;;;;5111640;28;20020;-87
2022/05/09 03:25:07;;;;;;;7.93;4.18;;;;;;;;;;5095855;28;20095;-87
2022/05/09 03:27:33;;;;;;;11.93;4.25;;;;;;;;;;5111409;28;20031;-87
2022/05/09 03:29:58;;;;;;;13.52;4.90;;;;;;;;;;5110434;28;20024;-87
2022/05/09 03:32:23;;;;;;;11.18;4.38;;;;;;;;;;5111688;28;20032;-87
2022/05/09 03:34:48;;;;;;;16.73;4.63;;;;;;;;;;5111300;28;20027;-87
2022/05/09 03:37:13;;;;;;;15.95;4.85;;;;;;;;;;5111230;28;20383;-87
2022/05/09 03:39:38;;;;;;;15.23;4.15;;;;;;;;;;5095526;28;20349;-87
2022/05/09 03:42:06;;;;;;;12.60;4.68;;;;;;;;;;5111173;28;20486;-87
2022/05/09 03:44:31;;;;;;;13.48;3.83;;;;;;;;;;5111084;28;20108;-87
2022/05/09 03:46:56;;;;;;;10.48;4.05;;;;;;;;;;5110990;28;20056;-87
2022/05/09 03:49:22;;;;;;;13.90;4.50;;;;;;;;;;5111065;28;20028;-87
2022/05/09 03:51:47;;;;;;;14.32;4.95;;;;;;;;;;5095163;28;20468;-87
2022/05/09 03:54:12;;;;;;;14.77;4.72;;;;;;;;;;5110877;28;20051;-88
2022/05/09 03:56:37;;;;;;;14.38;4.07;;;;;;;;;;5111191;28;20035;-87
2022/05/09 03:59:03;;;;;;;8.57;4.00;;;;;;;;;;5110871;28;20031;-87
2022/05/09 04:01:28;;;;;;;9.20;4.22;;;;;;;;;;5110806;28;20107;-87
2022/05/09 04:03:53;;;;;;;15.48;4.82;;;;;;;;;;5110735;28;20058;-87
2022/05/09 04:06:18;;;;;;;15.65;4.40;;;;;;;;;;5110672;28;20027;-87
2022/05/09 04:08:44;;;;;;;11.63;4.35;;;;;;;;;;5110578;28;20046;-87
2022/05/09 04:11:10;;;;;;;14.07;4.88;;;;;;;;;;5110740;28;20107;-87
2022/05/09 04:13:35;;;;;;;20.60;5.00;;;;;;;;;;5110581;28;20016;-87
2022/05/09 04:18:44;;;;;;;10.02;4.32;;;;;;;;;;5095186;28;20035;-87
2022/05/09 04:21:11;;;;;;;13.57;4.57;;;;;;;;;;5094855;28;20378;-88
2022/05/09 04:23:38;;;;;;;15.18;4.50;;;;;;;;;;5110378;28;20028;-87
2022/05/09 04:26:04;;;;;;;14.10;4.78;;;;;;;;;;5094582;28;20402;-87
2022/05/09 04:28:30;;;;;;;12.55;4.30;;;;;;;;;;5110262;28;20051;-87
2022/05/09 04:30:56;;;;;;;9.05;4.53;;;;;;;;;;5110203;28;20024;-87
2022/05/09 04:33:21;;;;;;;13.68;4.22;;;;;;;;;;5110230;28;20039;-87
2022/05/09 04:35:46;;;;;;;15.35;4.80;;;;;;;;;;5094366;28;20497;-87
2022/05/09 04:38:16;;;;;;;15.10;4.88;;;;;;;;;;5094234;28;20028;-87
2022/05/09 04:40:41;;;;;;;18.30;5.10;;;;;;;;;;5110001;28;20026;-87
2022/05/09 04:43:07;;;;;;;12.75;3.80;;;;;;;;;;5109676;28;20028;-87
2022/05/09 04:45:32;;;;;;;11.32;4.90;;;;;;;;;;5110013;28;20027;-87
2022/05/09 04:47:57;;;;;;;19.17;5.07;;;;;;;;;;5109839;28;20024;-87
2022/05/09 04:50:23;;;;;;;10.63;4.43;;;;;;;;;;5109927;28;20115;-87
2022/05/09 04:52:49;;;;;;;14.60;4.72;;;;;;;;;;5110108;28;20024;-87
2022/05/09 04:55:15;;;;;;;12.43;4.72;;;;;;;;;;5109888;28;20039;-87
2022/05/09 04:57:40;;;;;;;14.55;4.78;;;;;;;;;;5109725;28;20028;-87
2022/05/09 05:00:07;;;;;;;19.50;5.20;;;;;;;;;;5109900;28;20016;-87
2022/05/09 05:02:33;;;;;;;20.05;5.68;;;;;;;;;;5093923;28;20089;-87
2022/05/09 05:04:58;;;;;;;12.07;5.03;;;;;;;;;;5109744;28;20474;-87
2022/05/09 05:07:23;;;;;;;11.18;4.65;;;;;;;;;;5109696;28;20031;-87
2022/05/09 05:09:48;;;;;;;10.52;4.47;;;;;;;;;;5109637;28;20027;-87
2022/05/09 05:12:14;;;;;;;13.10;4.53;;;;;;;;;;5109796;28;20024;-87
2022/05/09 05:14:39;;;;;;;16.75;5.40;;;;;;;;;;5109566;28;20024;-87
2022/05/09 05:17:04;;;;;;;15.68;4.47;;;;;;;;;;5093834;28;20019;-87
2022/05/09 05:19:36;;;;;;;15.30;5.28;;;;;;;;;;5109336;28;20016;-87
2022/05/09 05:22:02;;;;;;;13.38;4.22;;;;;;;;;;5093751;28;20024;-87
2022/05/09 05:24:28;;;;;;;12.70;4.75;;;;;;;;;;5109444;28;20375;-87
2022/05/09 05:26:54;;;;;;;12.57;4.40;;;;;;;;;;5109377;28;20030;-87
2022/05/09 05:29:20;;;;;;;10.55;5.10;;;;;;;;;;5109403;28;20020;-87
2022/05/09 05:31:45;;;;;;;19.80;4.95;;;;;;;;;;5109374;28;20077;-87
2022/05/09 05:34:10;;;;;;;24.00;6.07;;;;;;;;;;5092447;28;20016;-87
2022/05/09 05:36:35;;;;;;;21.13;6.10;;;;;;;;;;5109331;28;20383;-87
2022/05/09 05:39:01;;;;;;;12.55;5.60;;;;;;;;;;5109455;28;20399;-87
2022/05/09 05:41:27;;;;;;;12.73;5.68;;;;;;;;;;5109269;28;20114;-87
2022/05/09 05:43:53;;;;;;;20.38;6.63;;;;;;;;;;5109230;28;20035;-87
2022/05/09 05:46:19;;;;;;;18.38;6.32;;;;;;;;;;5109429;28;20467;-87
2022/05/09 05:48:44;;;;;;;20.55;7.03;;;;;;;;;;5093732;28;20027;-87
2022/05/09 05:51:11;;;;;;;23.48;7.68;;;;;;;;;;5109546;28;20024;-87
2022/05/09 05:53:36;;;;;;;21.38;8.05;;;;;;;;;;5110731;28;20150;-88
2022/05/09 05:56:02;;;;;;;21.88;8.05;;;;;;;;;;5113236;28;20070;-87
2022/05/09 05:58:28;;;;;;;16.55;8.15;;;;;;;;;;5113188;28;20486;-88
2022/05/09 06:00:53;;;;;;;19.00;8.60;;;;;;;;;;5113174;28;20479;-87
2022/05/09 06:03:20;;;;;;;16.25;7.45;;;;;;;;;;5113104;28;20069;-87
2022/05/09 06:05:45;;;;;;;14.98;7.35;;;;;;;;;;5113315;28;20039;-87
2022/05/09 06:08:10;;;;;;;18.33;7.65;;;;;;;;;;5097119;28;20027;-87
2022/05/09 06:10:36;;;;;;;21.90;7.40;;;;;;;;;;5112951;28;20012;-87
2022/05/09 06:13:02;;;;;;;20.90;7.65;;;;;;;;;;5113132;28;20378;-88
2022/05/09 06:15:33;;;;;;;29.73;8.18;;;;;;;;;;5112888;28;20024;-87
2022/05/09 06:18:00;;;;;;;10.75;6.78;;;;;;;;;;5112825;28;20498;-88
2022/05/09 06:20:26;;;;;;;19.10;8.43;;;;;;;;;;5112769;28;20012;-87
2022/05/09 06:22:52;;;;;;;17.20;7.78;;;;;;;;;;5112700;28;20432;-87
2022/05/09 06:25:18;;;;;;;22.55;7.85;;;;;;;;;;5112674;28;20047;-87
2022/05/09 06:27:43;;;;;;;18.05;8.77;;;;;;;;;;5112558;28;20421;-87
2022/05/09 06:30:11;;;;;;;26.73;8.88;;;;;;;;;;5112612;28;20027;-87
2022/05/09 06:32:36;;;;;;;18.80;8.98;;;;;;;;;;5096682;28;20016;-87
2022/05/09 06:35:02;;;;;;;32.08;10.63;;;;;;;;;;5096665;28;20049;-87
2022/05/09 06:37:29;;;;;;;21.33;8.80;;;;;;;;;;5095258;28;20043;-87
2022/05/09 06:39:54;;;;;;;25.63;10.50;;;;;;;;;;5096867;28;20400;-87
2022/05/09 06:42:19;;;;;;;23.63;9.40;;;;;;;;;;5095484;28;20123;-88
2022/05/09 06:44:44;;;;;;;28.30;9.23;;;;;;;;;;5112174;28;20028;-88
2022/05/09 06:47:10;;;;;;;22.38;9.15;;;;;;;;;;5112233;28;20471;-88
2022/05/09 06:49:36;;;;;;;19.80;8.82;;;;;;;;;;5112142;28;20070;-88
2022/05/09 06:52:01;;;;;;;26.00;8.50;;;;;;;;;;5112186;28;20028;-87
2022/05/09 06:54:26;;;;;;;23.48;9.38;;;;;;;;;;5112074;28;20024;-87
2022/05/09 06:56:51;;;;;;;25.05;8.88;;;;;;;;;;5096440;28;20024;-87
2022/05/09 06:59:19;;;;;;;23.45;9.00;;;;;;;;;;5096172;28;20017;-87
2022/05/09 07:01:45;;;;;;;30.52;9.50;;;;;;;;;;5111864;28;20107;-87
2022/05/09 07:04:10;;;;;;;19.33;7.78;;;;;;;;;;5111827;28;20052;-87
2022/05/09 07:06:35;;;;;;;14.93;7.15;;;;;;;;;;5111786;28;20499;-88
2022/05/09 07:09:01;;;;;;;23.13;9.55;;;;;;;;;;5111760;28;20077;-87
2022/05/09 07:11:26;;;;;;;21.10;6.47;;;;;;;;;;5111765;28;20016;-87
2022/05/09 07:13:51;;;;;;;22.80;7.63;;;;;;;;;;5111768;28;20383;-88
2022/05/09 07:16:17;;;;;;;18.98;6.47;;;;;;;;;;5111677;28;20024;-87
2022/05/09 07:18:43;;;;;;;13.30;6.32;;;;;;;;;;5095785;28;20035;-87
2022/05/09 07:21:08;;;;;;;16.65;6.47;;;;;;;;;;5111491;28;20406;-87
2022/05/09 07:23:34;;;;;;;18.08;7.32;;;;;;;;;;5111464;28;20107;-88
2022/05/09 07:26:00;;;;;;;17.55;5.72;;;;;;;;;;5111468;28;20024;-87
2022/05/09 07:28:28;;;;;;;10.93;5.30;;;;;;;;;;5111423;28;20027;-88
2022/05/09 07:30:53;;;;;;;16.25;5.57;;;;;;;;;;5111404;28;20054;-87
2022/05/09 07:33:19;;;;;;;17.67;5.47;;;;;;;;;;5111295;28;20031;-87
2022/05/09 07:35:44;;;;;;;15.68;5.63;;;;;;;;;;5111195;28;20084;-88
2022/05/09 07:38:11;;;;;;;13.20;4.95;;;;;;;;;;5111203;28;20020;-88
2022/05/09 07:40:36;;;;;;;10.82;5.07;;;;;;;;;;5111144;28;20016;-87
2022/05/09 07:43:01;;;;;;;9.57;4.57;;;;;;;;;;5110964;28;20039;-87
2022/05/09 07:45:27;;;;;;;15.93;4.57;;;;;;;;;;5095292;28;20470;-87
2022/05/09 07:47:52;;;;;;;14.00;4.78;;;;;;;;;;5111059;28;20012;-88
2022/05/09 07:50:17;;;;;;;17.90;6.22;;;;;;;;;;5111025;28;20030;-87
2022/05/09 07:52:43;;;;;;;16.35;5.32;;;;;;;;;;5110802;28;20028;-87
2022/05/09 07:55:09;;;;;;;12.60;4.90;;;;;;;;;;5110830;28;20463;-88
2022/05/09 07:57:35;;;;;;;16.17;5.07;;;;;;;;;;5110562;28;20030;-88
2022/05/09 08:00:00;;;;;;;11.95;4.55;;;;;;;;;;5094920;28;20012;-87
2022/05/09 08:02:25;;;;;;;19.08;5.40;;;;;;;;;;5095047;28;20493;-87
2022/05/09 08:04:50;;;;;;;12.50;4.80;;;;;;;;;;5110711;28;20066;-87
2022/05/09 08:07:16;;;;;;;13.63;4.93;;;;;;;;;;5110660;28;20031;-87
2022/05/09 08:09:41;;;;;;;9.73;4.03;;;;;;;;;;5110611;28;20391;-88
2022/05/09 08:12:07;;;;;;;18.13;5.45;;;;;;;;;;5110543;28;20026;-88
2022/05/09 08:14:32;;;;;;;12.63;4.82;;;;;;;;;;5094753;28;20095;-88
2022/05/09 08:16:58;;;;;;;12.77;4.82;;;;;;;;;;5109777;28;20024;-88
2022/05/09 08:19:23;;;;;;;19.17;5.32;;;;;;;;;;5110430;28;20046;-87
2022/05/09 08:21:50;;;;;;;12.50;4.22;;;;;;;;;;5110316;28;20141;-87
2022/05/09 08:24:16;;;;;;;9.88;4.00;;;;;;;;;;5110400;28;20073;-87
2022/05/09 08:26:41;;;;;;;15.98;4.95;;;;;;;;;;5110572;28;20016;-87
2022/05/09 08:29:07;;;;;;;15.60;5.45;;;;;;;;;;5110240;28;20020;-87
2022/05/09 08:31:32;;;;;;;12.00;4.88;;;;;;;;;;5110205;28;20023;-88
2022/05/09 08:33:59;;;;;;;13.50;5.20;;;;;;;;;;5110177;28;20379;-88
2022/05/09 08:39:08;;;;;;;12.07;4.43;;;;;;;;;;5094618;28;20046;-87
2022/05/09 08:41:48;;;;;;;16.02;4.75;;;;;;;;;;5094231;28;20451;-87
2022/05/09 08:44:20;;;;;;;15.98;6.30;;;;;;;;;;5109855;28;20072;-87
2022/05/09 08:46:45;;;;;;;;;;;;;;;;;;5110354;28;20016;-87
2022/05/09 08:49:29;;;;;;;13.93;5.55;;;;;;;;;;5109854;28;19915;-87
2022/05/09 08:51:58;;;;;;;17.08;5.97;;;;;;;;;;5109783;28;20262;-87
2022/05/09 08:54:24;;;;;;;15.48;5.68;;;;;;;;;;5094071;28;20023;-87
2022/05/09 08:56:51;;;;;;;9.00;4.43;;;;;;;;;;5094091;28;20371;-87
2022/05/09 08:59:21;;;;;;;13.13;5.35;;;;;;;;;;5109673;28;20028;-87
2022/05/09 09:01:51;;;;;;;14.55;6.30;;;;;;;;;;5109737;28;20074;-87
2022/05/09 09:04:22;;;;;;;16.15;5.43;;;;;;;;;;5109621;28;20356;-87
2022/05/09 09:06:50;;;;;;;13.82;4.65;;;;;;;;;;5109652;28;20020;-87
2022/05/09 09:09:24;;;;;;;14.13;5.93;;;;;;;;;;5093825;28;20027;-88
2022/05/09 09:11:55;;;;;;;17.27;4.55;;;;;;;;;;5109516;28;20027;-87
2022/05/09 09:14:24;;;;;;;24.45;4.68;;;;;;;;;;5109636;28;20023;-87
2022/05/09 09:16:52;;;;;;;14.73;4.95;;;;;;;;;;5109492;28;20414;-87
2022/05/09 09:19:20;;;;;;;12.57;3.40;;;;;;;;;;5093749;28;20065;-86
2022/05/09 09:21:45;;;;;;;10.07;3.08;;;;;;;;;;5109383;28;20019;-87
2022/05/09 09:24:10;;;;;;;13.25;2.60;;;;;;;;;;5109509;28;20024;-87
2022/05/09 09:26:39;;;;;;;9.52;3.67;;;;;;;;;;5109389;28;20471;-87
2022/05/09 09:29:13;;;;;;;12.50;3.28;;;;;;;;;;5111560;28;20133;-88
2022/05/09 09:31:43;;;;;;;15.43;3.53;;;;;;;;;;5113722;28;20104;-87
2022/05/09 09:34:31;;;;;;;13.45;3.42;;;;;;;;;;5113614;28;20016;-87
2022/05/09 09:37:17;;;;;;;20.10;3.90;;;;;;;;;;5097803;28;20030;-88
2022/05/09 09:39:42;;;;;;;20.88;3.72;;;;;;;;;;5096194;28;20540;-87
2022/05/09 09:42:07;;;;;;;9.82;3.13;;;;;;;;;;5113527;28;20020;-88
2022/05/09 09:44:34;;;;;;;9.52;3.08;;;;;;;;;;5113466;28;20077;-88
2022/05/09 09:47:07;;;;;;;14.98;3.22;;;;;;;;;;5113387;28;20081;-87
2022/05/09 09:49:34;;;;;;;7.38;3.03;;;;;;;;;;5097635;28;20054;-87
2022/05/09 09:51:59;;;;;;;15.60;2.97;;;;;;;;;;5113595;28;20024;-87
2022/05/09 09:54:26;;;;;;;13.02;3.42;;;;;;;;;;5113174;28;20020;-88
2022/05/09 09:56:52;;;;;;;17.48;3.58;;;;;;;;;;5113081;28;20691;-87
2022/05/09 09:59:21;;;;;;;13.25;3.50;;;;;;;;;;5113146;28;20016;-88
2022/05/09 10:02:05;;;;;;;11.10;3.03;;;;;;;;;;5113228;28;20012;-88
2022/05/09 10:04:30;;;;;;;22.10;4.20;;;;;;;;;;5097278;28;20024;-87
2022/05/09 10:06:59;;;;;;;9.18;3.25;;;;;;;;;;5113027;28;20110;-87
2022/05/09 10:09:26;;;;;;;9.68;3.10;;;;;;;;;;5112889;28;20020;-87
2022/05/09 10:11:51;;;;;;;9.50;3.47;;;;;;;;;;5097330;28;20490;-87
2022/05/09 10:14:34;;;;;;;11.07;4.07;;;;;;;;;;5112906;28;20076;-87
2022/05/09 10:17:12;;;;;;;10.52;4.90;;;;;;;;;;5112790;28;20360;-87
2022/05/09 10:19:37;;;;;;;14.55;4.05;;;;;;;;;;5112703;28;20050;-87
2022/05/09 10:24:57;;;;;;;14.43;3.90;;;;;;;;;;5097509;28;20055;-87
2022/05/09 10:27:22;;;;;;;9.63;3.47;;;;;;;;;;5112545;28;20076;-86
2022/05/09 10:29:54;;;;;;;6.75;3.58;;;;;;;;;;5112469;28;20024;-87
2022/05/09 10:32:41;;;;;;;13.40;4.05;;;;;;;;;;5112490;28;20020;-87
2022/05/09 10:35:18;;;;;;;11.13;3.78;;;;;;;;;;5096595;28;20039;-87
2022/05/09 10:37:48;;;;;;;10.90;4.35;;;;;;;;;;5112488;28;20490;-87
2022/05/09 10:40:18;;;;;;;13.75;4.10;;;;;;;;;;5096371;28;20016;-87
2022/05/09 10:42:46;;;;;;;11.90;5.13;;;;;;;;;;5112183;28;20032;-88
2022/05/09 10:45:19;;;;;;;15.35;4.28;;;;;;;;;;5112264;28;20022;-87
2022/05/09 10:47:53;;;;;;;13.77;4.53;;;;;;;;;;5112409;28;20471;-87
2022/05/09 10:50:32;;;;;;;13.82;4.30;;;;;;;;;;5112175;28;20024;-88
2022/05/09 10:53:03;;;;;;;16.00;5.13;;;;;;;;;;5112228;28;20031;-88
2022/05/09 10:55:37;;;;;;;11.63;4.93;;;;;;;;;;5112114;28;20030;-88
2022/05/09 10:58:06;;;;;;;11.30;5.30;;;;;;;;;;5096220;28;20470;-88
2022/05/09 11:00:33;;;;;;;15.02;5.10;;;;;;;;;;5096246;28;20095;-89
2022/05/09 11:03:14;;;;;;;9.75;4.93;;;;;;;;;;5112002;28;20012;-88
2022/05/09 11:06:01;;;;;;;12.70;5.00;;;;;;;;;;5096211;28;20095;-88
2022/05/09 11:08:41;;;;;;;14.32;5.63;;;;;;;;;;5096094;28;20536;-88
2022/05/09 11:11:29;;;;;;;11.05;4.60;;;;;;;;;;5111785;28;20016;-88
2022/05/09 11:14:00;;;;;;;16.77;4.95;;;;;;;;;;5095365;28;20070;-87
2022/05/09 11:16:26;;;;;;;11.82;4.45;;;;;;;;;;5111663;28;20024;-87
2022/05/09 11:19:01;;;;;;;11.48;4.32;;;;;;;;;;5111548;28;20024;-87
2022/05/09 11:21:49;;;;;;;15.98;5.18;;;;;;;;;;5111612;28;20022;-88
2022/05/09 11:24:33;;;;;;;19.90;5.75;;;;;;;;;;5095763;28;20016;-87
2022/05/09 11:27:11;;;;;;;18.65;5.53;;;;;;;;;;5111506;28;20027;-87
2022/05/09 11:29:36;;;;;;;9.50;4.13;;;;;;;;;;5111393;28;20043;-87
2022/05/09 11:32:18;;;;;;;17.58;4.88;;;;;;;;;;5095509;28;20120;-87
2022/05/09 11:34:52;;;;;;;12.73;4.63;;;;;;;;;;5111311;28;20023;-88
2022/05/09 11:37:24;;;;;;;10.90;4.40;;;;;;;;;;5111137;28;20028;-88
2022/05/09 11:39:49;;;;;;;10.32;4.30;;;;;;;;;;5095396;28;20081;-87
2022/05/09 11:45:25;;;;;;;13.98;4.63;;;;;;;;;;5095710;28;20442;-88
2022/05/09 11:48:03;;;;;;;12.77;4.75;;;;;;;;;;5090937;28;20127;-87
2022/05/09 11:50:46;;;;;;;10.50;4.30;;;;;;;;;;5110577;28;20024;-87
2022/05/09 11:53:13;;;;;;;11.45;4.03;;;;;;;;;;5110839;28;20028;-87
2022/05/09 11:55:39;;;;;;;15.05;4.13;;;;;;;;;;5110859;28;20035;-87
2022/05/09 11:58:05;;;;;;;12.90;4.90;;;;;;;;;;5110900;28;20489;-88
2022/05/09 12:00:33;;;;;;;18.77;5.30;;;;;;;;;;5110871;28;20020;-87
2022/05/09 12:02:59;;;;;;;16.70;5.13;;;;;;;;;;5110832;28;20020;-88
2022/05/09 12:05:25;;;;;;;12.43;4.90;;;;;;;;;;5110704;28;20511;-87
2022/05/09 12:07:54;;;;;;;11.45;5.03;;;;;;;;;;5094982;28;20073;-87
2022/05/09 12:10:27;;;;;;;19.80;6.38;;;;;;;;;;5110580;28;20016;-87
2022/05/09 12:12:55;;;;;;;11.90;4.28;;;;;;;;;;5110563;28;20032;-87
2022/05/09 12:15:21;;;;;;;9.63;4.35;;;;;;;;;;5110482;28;20024;-87
2022/05/09 12:17:53;;;;;;;11.35;3.72;;;;;;;;;;5110374;28;20045;-87
2022/05/09 12:20:23;;;;;;;9.75;4.20;;;;;;;;;;5110414;28;20016;-88
2022/05/09 12:22:51;;;;;;;7.68;3.67;;;;;;;;;;5110330;28;20032;-87
2022/05/09 12:25:35;;;;;;;10.82;4.05;;;;;;;;;;5094568;28;20048;-87
2022/05/09 12:28:05;;;;;;;11.55;3.88;;;;;;;;;;5110200;28;20048;-87
2022/05/09 12:30:36;;;;;;;8.82;4.15;;;;;;;;;;5110245;28;20020;-87
2022/05/09 12:33:09;;;;;;;10.30;4.50;;;;;;;;;;5110343;28;20065;-87
2022/05/09 12:35:34;;;;;;;10.43;3.90;;;;;;;;;;5094436;28;20076;-87
2022/05/09 12:37:59;;;;;;;11.48;5.47;;;;;;;;;;5094094;28;20020;-87
2022/05/09 12:40:25;;;;;;;12.13;5.55;;;;;;;;;;5110023;28;20032;-87
2022/05/09 12:42:55;;;;;;;8.90;4.65;;;;;;;;;;5109775;28;20020;-88
2022/05/09 12:45:21;;;;;;;8.80;3.90;;;;;;;;;;5094260;28;20023;-87
2022/05/09 12:47:47;;;;;;;11.30;3.95;;;;;;;;;;5109844;28;20016;-87
2022/05/09 12:50:17;;;;;;;8.40;3.65;;;;;;;;;;5110018;28;20109;-87
2022/05/09 12:52:51;;;;;;;10.90;3.78;;;;;;;;;;5109751;28;20032;-87
2022/05/09 12:58:00;;;;;;;17.50;5.03;;;;;;;;;;5094485;28;20097;-88
2022/05/09 13:00:27;;;;;;;7.80;3.58;;;;;;;;;;5109787;28;20426;-87
2022/05/09 13:02:52;;;;;;;17.77;4.68;;;;;;;;;;5109485;28;20107;-87
2022/05/09 13:05:30;;;;;;;9.45;4.18;;;;;;;;;;5092570;28;20448;-87
2022/05/09 13:07:56;;;;;;;10.75;3.92;;;;;;;;;;5109513;28;20028;-87
2022/05/09 13:10:22;;;;;;;11.40;3.90;;;;;;;;;;5093793;28;20097;-88
2022/05/09 13:12:47;;;;;;;9.07;4.18;;;;;;;;;;5109583;28;20032;-87
2022/05/09 13:15:16;;;;;;;6.88;3.35;;;;;;;;;;5109522;28;20027;-87
2022/05/09 13:17:44;;;;;;;9.10;4.25;;;;;;;;;;5109370;28;20061;-87
2022/05/09 13:20:12;;;;;;;5.70;3.08;;;;;;;;;;5109420;28;20051;-87
2022/05/09 13:22:44;;;;;;;7.05;3.80;;;;;;;;;;5109371;28;20016;-88
2022/05/09 13:25:10;;;;;;;8.32;3.97;;;;;;;;;;5109496;28;20471;-87
2022/05/09 13:27:36;;;;;;;9.25;4.00;;;;;;;;;;5109455;28;20020;-87
2022/05/09 13:30:05;;;;;;;7.88;3.75;;;;;;;;;;5109254;28;20016;-87
2022/05/09 13:32:33;;;;;;;9.98;3.83;;;;;;;;;;5109370;28;20024;-88
2022/05/09 13:34:59;;;;;;;8.90;3.70;;;;;;;;;;5093528;28;20024;-87
2022/05/09 13:37:29;;;;;;;7.57;3.50;;;;;;;;;;5109139;28;20016;-87
2022/05/09 13:39:56;;;;;;;9.68;4.55;;;;;;;;;;5109174;28;20482;-88
2022/05/09 13:42:21;;;;;;;9.63;4.10;;;;;;;;;;5109278;28;20048;-87
2022/05/09 13:44:47;;;;;;;9.13;3.78;;;;;;;;;;5109239;28;20536;-88
2022/05/09 13:47:13;;;;;;;9.02;4.30;;;;;;;;;;5109205;28;20028;-87
2022/05/09 13:49:38;;;;;;;9.15;3.75;;;;;;;;;;5109163;28;20022;-87
2022/05/09 13:52:04;;;;;;;7.55;4.18;;;;;;;;;;5093429;28;20020;-87
2022/05/09 13:54:30;;;;;;;8.68;3.85;;;;;;;;;;5109168;28;20027;-87
2022/05/09 13:57:08;;;;;;;9.73;3.00;;;;;;;;;;5109044;28;20055;-87
2022/05/09 13:59:34;;;;;;;12.18;4.30;;;;;;;;;;5109077;28;20025;-87
2022/05/09 14:02:00;;;;;;;7.57;4.40;;;;;;;;;;5109143;28;20051;-87
2022/05/09 14:04:27;;;;;;;13.57;4.60;;;;;;;;;;5108989;28;20020;-87
2022/05/09 14:06:52;;;;;;;13.57;4.30;;;;;;;;;;5093232;28;20040;-87
2022/05/09 14:09:22;;;;;;;10.82;4.25;;;;;;;;;;5093352;28;20024;-87
2022/05/09 14:11:58;;;;;;;11.77;4.53;;;;;;;;;;5109019;28;20028;-87
2022/05/09 14:14:34;;;;;;;8.07;4.35;;;;;;;;;;5109857;28;20535;-87
2022/05/09 14:17:01;;;;;;;9.88;4.63;;;;;;;;;;5112774;28;20027;-88
2022/05/09 14:19:28;;;;;;;10.70;4.85;;;;;;;;;;5112757;28;20016;-87
2022/05/09 14:21:58;;;;;;;12.07;4.75;;;;;;;;;;5095863;28;20073;-88
2022/05/09 14:24:25;;;;;;;7.00;4.40;;;;;;;;;;5112747;28;20012;-88
2022/05/09 14:29:36;;;;;;;8.80;3.90;;;;;;;;;;5097185;28;20032;-88
2022/05/09 14:32:06;;;;;;;9.65;4.25;;;;;;;;;;5096757;28;20072;-87
2022/05/09 14:34:32;;;;;;;11.23;4.30;;;;;;;;;;5096794;28;20016;-88
2022/05/09 14:37:15;;;;;;;10.05;4.28;;;;;;;;;;5112446;28;20024;-87
2022/05/09 14:39:41;;;;;;;4.97;3.25;;;;;;;;;;5112548;28;20016;-88
2022/05/09 14:42:10;;;;;;;12.27;4.95;;;;;;;;;;5112419;28;20020;-88
2022/05/09 14:44:35;;;;;;;7.93;4.40;;;;;;;;;;5112243;28;20462;-88
2022/05/09 14:47:04;;;;;;;11.68;4.50;;;;;;;;;;5112257;28;20070;-88
2022/05/09 14:49:31;;;;;;;9.20;4.35;;;;;;;;;;5112222;28;20111;-88
2022/05/09 14:51:57;;;;;;;9.30;4.30;;;;;;;;;;5112139;28;20073;-88
2022/05/09 14:54:22;;;;;;;7.07;3.50;;;;;;;;;;5096458;28;20026;-88
2022/05/09 14:59:34;;;;;;;14.82;5.30;;;;;;;;;;5096776;28;20077;-88
2022/05/09 15:02:02;;;;;;;12.98;5.15;;;;;;;;;;5111953;28;20012;-87